Time;durP1;ratioP1;P1;durP2;ratioP2;P2;SDS_P1;SDS_P2;PMS_P1;PMS_P2;Temp;Humidity;BMP_temperature;BMP_pressure;BME280_temperature;BME280_humidity;BME280_pressure;Samples;Min_cycle;Max_cycle;Signal;HPM_P1;HPM_P2
2022/04/26 03:37:26;;;;;;;29.33;12.88;;;5.50;99.90;;;;;;4895099;29;20063;-81
2022/04/26 03:39:52;;;;;;;27.10;13.88;;;5.40;99.90;;;;;;4877875;29;20052;-80
2022/04/26 03:42:18;;;;;;;25.83;14.35;;;5.40;99.90;;;;;;4861976;29;20056;-81
2022/04/26 03:44:43;;;;;;;30.83;12.57;;;5.50;99.90;;;;;;4877599;29;20084;-81
2022/04/26 03:47:09;;;;;;;29.83;13.45;;;5.40;99.90;;;;;;4876609;29;20056;-80
2022/04/26 03:49:35;;;;;;;31.15;11.68;;;5.50;99.90;;;;;;4877731;29;20056;-80
2022/04/26 03:52:01;;;;;;;30.67;12.18;;;5.30;99.90;;;;;;4877063;29;20055;-80
2022/04/26 03:54:27;;;;;;;35.08;12.40;;;5.40;99.90;;;;;;4877692;29;20067;-81
2022/04/26 03:56:53;;;;;;;25.95;11.65;;;5.30;99.90;;;;;;4876879;29;20416;-80
2022/04/26 03:59:19;;;;;;;27.63;10.73;;;5.30;99.90;;;;;;4877488;29;20041;-81
2022/04/26 04:01:46;;;;;;;23.38;10.27;;;5.30;99.90;;;;;;4861546;29;20060;-80
2022/04/26 04:04:12;;;;;;;26.27;10.15;;;5.30;99.90;;;;;;4877107;29;20049;-80
2022/04/26 04:06:37;;;;;;;22.05;9.80;;;5.30;99.90;;;;;;4894299;29;20099;-81
2022/04/26 04:09:03;;;;;;;25.08;9.55;;;5.20;99.90;;;;;;4876993;29;20052;-81
2022/04/26 04:11:29;;;;;;;25.80;9.13;;;5.50;99.90;;;;;;4860587;29;20060;-80
2022/04/26 04:13:55;;;;;;;23.73;8.50;;;5.30;99.90;;;;;;4876879;29;20067;-81
2022/04/26 04:16:21;;;;;;;27.83;9.15;;;5.30;99.90;;;;;;4876594;29;20060;-81
2022/04/26 04:21:31;;;;;;;28.73;9.70;;;5.30;99.90;;;;;;4892728;29;20045;-81
2022/04/26 04:23:57;;;;;;;20.90;8.20;;;5.60;99.90;;;;;;4893062;29;20552;-80
2022/04/26 04:26:23;;;;;;;19.15;7.70;;;5.40;99.90;;;;;;4892423;29;20157;-81
2022/04/26 04:28:48;;;;;;;18.75;7.20;;;5.60;99.90;;;;;;4876833;29;20496;-81
2022/04/26 04:31:14;;;;;;;25.13;7.63;;;5.40;99.90;;;;;;4875912;29;20485;-80
2022/04/26 04:33:40;;;;;;;21.63;6.97;;;5.40;99.90;;;;;;4861474;29;20476;-80
2022/04/26 04:36:06;;;;;;;22.83;7.07;;;5.40;99.90;;;;;;4893327;29;20326;-80
2022/04/26 04:38:32;;;;;;;23.85;7.68;;;5.40;99.90;;;;;;4876405;29;20053;-81
2022/04/26 04:40:58;;;;;;;21.75;7.57;;;5.40;99.90;;;;;;4876137;29;20088;-80
2022/04/26 04:43:23;;;;;;;20.23;7.18;;;5.30;99.90;;;;;;4861306;29;20084;-80
2022/04/26 04:45:49;;;;;;;28.40;6.45;;;5.30;99.90;;;;;;4875293;29;20052;-81
2022/04/26 04:48:16;;;;;;;20.05;6.70;;;5.40;99.90;;;;;;4876913;29;20105;-80
2022/04/26 04:50:42;;;;;;;18.33;7.30;;;5.50;99.90;;;;;;4876611;29;20469;-80
2022/04/26 04:53:07;;;;;;;20.98;6.95;;;5.40;99.90;;;;;;4875883;29;20083;-80
2022/04/26 04:55:33;;;;;;;20.77;6.43;;;5.40;99.90;;;;;;4876932;29;20488;-81
2022/04/26 04:57:59;;;;;;;20.90;6.97;;;5.50;99.90;;;;;;4875771;29;20063;-81
2022/04/26 05:00:25;;;;;;;24.58;6.72;;;5.60;99.90;;;;;;4859916;29;20056;-81
2022/04/26 05:02:50;;;;;;;18.45;7.38;;;5.60;99.90;;;;;;4875918;29;20148;-81
2022/04/26 05:05:16;;;;;;;17.67;6.35;;;5.80;99.90;;;;;;4876351;29;20053;-81
2022/04/26 05:07:42;;;;;;;16.42;7.18;;;5.70;99.90;;;;;;4875799;29;20053;-81
2022/04/26 05:10:08;;;;;;;19.13;6.47;;;5.70;99.90;;;;;;4875466;29;20113;-81
2022/04/26 05:12:35;;;;;;;21.08;6.40;;;5.80;99.90;;;;;;4876636;29;20489;-81
2022/04/26 05:15:01;;;;;;;21.25;6.60;;;5.80;99.90;;;;;;4874781;29;20105;-80
2022/04/26 05:17:27;;;;;;;19.85;6.88;;;5.80;99.90;;;;;;4860217;29;20129;-81
2022/04/26 05:19:53;;;;;;;17.23;6.63;;;5.80;99.90;;;;;;4878913;29;20131;-81
2022/04/26 05:22:19;;;;;;;25.10;7.40;;;5.80;99.90;;;;;;4884030;29;20040;-83
2022/04/26 05:24:56;;;;;;;19.65;6.78;;;5.90;99.90;;;;;;4880671;29;20060;-83
2022/04/26 05:27:23;;;;;;;19.40;6.47;;;6.00;99.90;;;;;;4883081;29;20092;-83
2022/04/26 05:29:49;;;;;;;18.38;5.95;;;6.10;99.90;;;;;;4884415;29;20095;-83
2022/04/26 05:32:21;;;;;;;13.82;5.53;;;6.20;99.90;;;;;;4873900;29;20566;-82
2022/04/26 05:34:47;;;;;;;17.55;6.55;;;6.20;99.90;;;;;;4880435;29;20096;-82
2022/04/26 05:37:14;;;;;;;17.15;6.00;;;6.30;99.90;;;;;;4884266;29;20079;-82
2022/04/26 05:39:40;;;;;;;19.65;5.90;;;6.40;99.90;;;;;;4885724;29;20140;-81
2022/04/26 05:42:05;;;;;;;18.10;5.93;;;6.50;99.90;;;;;;4896110;29;20052;-81
2022/04/26 05:44:31;;;;;;;15.70;5.13;;;6.60;99.90;;;;;;4902845;29;20103;-82
2022/04/26 05:46:57;;;;;;;20.15;6.82;;;6.70;99.90;;;;;;4885230;29;20079;-82
2022/04/26 05:49:23;;;;;;;14.02;5.90;;;6.80;99.90;;;;;;4889067;29;20213;-82
2022/04/26 05:51:49;;;;;;;16.85;6.53;;;6.90;99.90;;;;;;4904529;29;20139;-81
2022/04/26 05:54:15;;;;;;;15.70;5.70;;;6.90;99.90;;;;;;4872631;29;20040;-82
2022/04/26 05:56:42;;;;;;;15.18;6.03;;;7.00;99.90;;;;;;4888624;29;20104;-82
2022/04/26 05:59:08;;;;;;;14.35;5.68;;;7.10;99.90;;;;;;4901325;29;20064;-82
2022/04/26 06:01:34;;;;;;;20.42;5.55;;;7.20;99.90;;;;;;4904761;29;20048;-82
2022/04/26 06:04:00;;;;;;;16.80;5.55;;;7.30;99.90;;;;;;4903622;29;20095;-81
2022/04/26 06:06:25;;;;;;;18.08;5.70;;;7.30;99.90;;;;;;4886957;29;20072;-82
2022/04/26 06:08:51;;;;;;;20.95;6.13;;;7.40;99.90;;;;;;4887720;29;20107;-82
2022/04/26 06:11:17;;;;;;;17.88;5.75;;;7.50;99.90;;;;;;4884319;29;20047;-81
2022/04/26 06:13:43;;;;;;;16.75;5.32;;;7.60;99.90;;;;;;4888288;29;20064;-81
2022/04/26 06:16:09;;;;;;;19.55;5.35;;;7.60;99.90;;;;;;4886630;29;20044;-81
2022/04/26 06:18:35;;;;;;;20.55;5.90;;;7.70;99.90;;;;;;4886887;29;20079;-82
2022/04/26 06:21:01;;;;;;;16.85;5.63;;;7.80;99.90;;;;;;4872455;29;20084;-81
2022/04/26 06:23:27;;;;;;;13.57;5.00;;;7.90;99.90;;;;;;4904396;29;20043;-80
2022/04/26 06:25:53;;;;;;;20.80;5.50;;;8.00;99.90;;;;;;4885788;29;20052;-81
2022/04/26 06:28:19;;;;;;;15.60;5.13;;;8.10;99.90;;;;;;4872718;29;20084;-81
2022/04/26 06:30:45;;;;;;;20.60;4.10;;;8.20;99.90;;;;;;4886501;29;20052;-81
2022/04/26 06:33:10;;;;;;;12.60;3.58;;;8.40;99.90;;;;;;4886965;29;20096;-82
2022/04/26 06:35:36;;;;;;;10.55;2.58;;;8.60;99.90;;;;;;4887936;29;20539;-82
2022/04/26 06:38:02;;;;;;;12.18;3.17;;;8.70;99.90;;;;;;4886091;29;20113;-81
2022/04/26 06:40:28;;;;;;;15.77;3.70;;;8.80;99.90;;;;;;4903687;29;20046;-84
2022/04/26 06:42:54;;;;;;;18.95;3.00;;;8.90;99.90;;;;;;4885952;29;20487;-81
2022/04/26 06:45:19;;;;;;;10.15;2.90;;;9.00;99.90;;;;;;4886096;29;20053;-82
2022/04/26 06:47:45;;;;;;;12.25;3.22;;;9.10;99.90;;;;;;4887081;29;20091;-82
2022/04/26 06:50:11;;;;;;;21.42;3.20;;;9.20;99.90;;;;;;4869998;29;20044;-81
2022/04/26 06:52:37;;;;;;;13.80;2.85;;;9.30;99.90;;;;;;4869561;29;20044;-81
2022/04/26 06:55:03;;;;;;;11.25;2.70;;;9.40;99.90;;;;;;4905257;29;20040;-81
2022/04/26 06:57:29;;;;;;;17.13;3.47;;;9.40;99.90;;;;;;4882250;29;20103;-82
2022/04/26 06:59:55;;;;;;;11.63;3.15;;;9.70;99.90;;;;;;4871348;29;20155;-82
2022/04/26 07:02:22;;;;;;;12.32;3.33;;;9.50;99.90;;;;;;4907320;29;20113;-82
2022/04/26 07:04:48;;;;;;;15.00;3.30;;;9.80;99.90;;;;;;4904481;29;20044;-82
2022/04/26 07:07:13;;;;;;;8.20;2.58;;;10.00;99.90;;;;;;4883460;29;20493;-81
2022/04/26 07:09:39;;;;;;;12.07;2.72;;;9.90;99.90;;;;;;4880802;29;20044;-82
2022/04/26 07:12:07;;;;;;;9.35;2.28;;;9.80;99.90;;;;;;4908841;29;20080;-82
2022/04/26 07:14:33;;;;;;;16.17;3.00;;;9.80;99.90;;;;;;4889340;29;20595;-82
2022/04/26 07:17:01;;;;;;;9.55;2.53;;;9.80;99.90;;;;;;4885634;29;20067;-82
2022/04/26 07:19:27;;;;;;;12.50;3.05;;;9.70;99.90;;;;;;4889948;29;20107;-82
2022/04/26 07:21:53;;;;;;;12.82;2.80;;;9.60;99.90;;;;;;4870701;29;20052;-81
2022/04/26 07:24:19;;;;;;;11.55;2.83;;;9.60;99.90;;;;;;4876965;29;20047;-82
2022/04/26 07:26:46;;;;;;;13.02;4.07;;;9.60;99.90;;;;;;4887131;29;20436;-82
2022/04/26 07:29:14;;;;;;;12.73;3.40;;;9.50;99.90;;;;;;4876740;29;20485;-81
2022/04/26 07:31:40;;;;;;;12.77;3.00;;;9.40;99.90;;;;;;4863976;29;20476;-82
2022/04/26 07:34:20;;;;;;;9.35;2.80;;;9.30;99.90;;;;;;4883370;29;20083;-81
2022/04/26 07:36:47;;;;;;;15.70;3.13;;;9.30;99.90;;;;;;4861876;29;20053;-82
2022/04/26 07:39:15;;;;;;;15.85;3.03;;;9.60;99.90;;;;;;4870037;29;20049;-83
2022/04/26 07:41:41;;;;;;;11.02;3.03;;;9.70;99.90;;;;;;4875197;29;20045;-81
2022/04/26 07:44:07;;;;;;;9.40;2.80;;;9.70;99.90;;;;;;4870897;29;20527;-81
2022/04/26 07:46:33;;;;;;;7.88;2.88;;;9.90;99.90;;;;;;4884941;29;20056;-81
2022/04/26 07:48:58;;;;;;;12.70;3.10;;;10.00;99.90;;;;;;4885691;29;20116;-81
2022/04/26 07:51:24;;;;;;;12.48;3.17;;;10.10;99.90;;;;;;4876768;29;20499;-81
2022/04/26 07:53:50;;;;;;;9.60;3.40;;;10.00;99.90;;;;;;4868127;29;20108;-81
2022/04/26 07:56:16;;;;;;;11.15;2.80;;;10.00;99.90;;;;;;4867319;29;20063;-81
2022/04/26 07:58:41;;;;;;;11.98;2.80;;;9.80;99.90;;;;;;4877520;29;20048;-81
2022/04/26 08:01:07;;;;;;;12.50;2.92;;;9.60;99.90;;;;;;4893086;29;20059;-81
2022/04/26 08:03:35;;;;;;;11.35;3.15;;;9.50;99.90;;;;;;4869013;29;20044;-81
2022/04/26 08:06:01;;;;;;;14.57;3.00;;;9.50;99.90;;;;;;4870683;29;20088;-82
2022/04/26 08:08:26;;;;;;;19.35;3.40;;;9.60;99.90;;;;;;4875201;29;20059;-82
2022/04/26 08:10:52;;;;;;;10.35;2.97;;;9.80;99.90;;;;;;4854849;29;20044;-82
2022/04/26 08:13:18;;;;;;;6.82;2.40;;;9.80;99.90;;;;;;4854227;29;20535;-82
2022/04/26 08:15:44;;;;;;;14.98;2.47;;;9.80;99.90;;;;;;4875072;29;20072;-81
2022/04/26 08:18:11;;;;;;;11.98;2.75;;;9.90;99.90;;;;;;4871314;29;20401;-81
2022/04/26 08:20:37;;;;;;;9.32;2.30;;;10.10;99.90;;;;;;4870773;29;20048;-81
2022/04/26 08:23:06;;;;;;;14.25;2.70;;;10.40;99.90;;;;;;4848593;29;20485;-81
2022/04/26 08:28:18;;;;;;;8.95;2.20;;;10.70;99.90;;;;;;4864299;29;20053;-81
2022/04/26 08:30:44;;;;;;;11.98;2.50;;;10.80;99.90;;;;;;4867361;29;20061;-81
2022/04/26 08:33:10;;;;;;;10.40;2.17;;;10.90;99.90;;;;;;4857224;29;20083;-82
2022/04/26 08:35:35;;;;;;;6.65;2.03;;;11.00;99.90;;;;;;4871814;29;20473;-84
2022/04/26 08:38:01;;;;;;;12.00;2.47;;;11.10;99.90;;;;;;4897083;29;20048;-81
2022/04/26 08:40:27;;;;;;;12.40;2.83;;;11.20;99.90;;;;;;4904343;29;20555;-81
2022/04/26 08:42:53;;;;;;;7.22;2.20;;;11.40;99.90;;;;;;4895100;29;20127;-81
2022/04/26 08:45:21;;;;;;;7.40;2.30;;;11.50;99.90;;;;;;4894047;29;20051;-81
2022/04/26 08:53:20;;;;;;;8.20;2.15;;;11.50;99.90;;;;;;4895027;29;20135;-80
2022/04/26 08:55:50;;;;;;;14.23;3.20;;;11.60;99.90;;;;;;4879464;29;20073;-80
2022/04/26 08:58:19;;;;;;;8.27;2.50;;;11.70;99.90;;;;;;4874155;29;20047;-81
2022/04/26 09:01:06;;;;;;;9.32;2.75;;;11.90;99.90;;;;;;4883983;29;20055;-81
2022/04/26 09:03:33;;;;;;;9.88;2.40;;;12.10;99.90;;;;;;4885249;29;20428;-82
2022/04/26 09:06:11;;;;;;;8.02;2.88;;;12.10;99.90;;;;;;4886311;29;20040;-81
2022/04/26 09:08:37;;;;;;;6.50;2.25;;;12.00;99.90;;;;;;4883791;29;20102;-80
2022/04/26 09:11:18;;;;;;;11.35;2.45;;;11.90;99.90;;;;;;4888673;29;20056;-81
2022/04/26 09:13:44;;;;;;;6.07;2.03;;;11.80;99.90;;;;;;4883690;29;20052;-81
2022/04/26 09:16:16;;;;;;;12.93;2.70;;;11.80;99.90;;;;;;4863315;29;20128;-81
2022/04/26 09:18:54;;;;;;;10.82;2.35;;;12.00;99.90;;;;;;4866233;29;20088;-81
2022/04/26 09:21:20;;;;;;;12.73;2.10;;;12.10;99.90;;;;;;4909880;29;20048;-81
2022/04/26 09:23:47;;;;;;;7.95;2.22;;;12.50;99.90;;;;;;4884184;29;20045;-81
2022/04/26 09:26:16;;;;;;;14.93;2.33;;;12.70;99.90;;;;;;4882495;29;20052;-80
2022/04/26 09:28:45;;;;;;;12.93;2.42;;;12.80;99.90;;;;;;4876326;29;20091;-81
2022/04/26 09:31:24;;;;;;;7.32;2.20;;;12.70;99.90;;;;;;4863104;29;20045;-81
2022/04/26 09:33:53;;;;;;;9.25;2.20;;;12.30;99.90;;;;;;4868089;29;20488;-80
2022/04/26 09:36:21;;;;;;;14.50;2.67;;;11.80;99.90;;;;;;4888163;29;20056;-81
2022/04/26 09:38:50;;;;;;;13.27;2.67;;;11.50;99.90;;;;;;4876711;29;20093;-81
2022/04/26 09:41:16;;;;;;;12.35;2.53;;;11.30;99.90;;;;;;4893907;29;20095;-81
2022/04/26 09:43:42;;;;;;;6.80;2.17;;;11.30;99.90;;;;;;4889343;29;20080;-81
2022/04/26 09:46:08;;;;;;;10.88;2.42;;;11.50;99.90;;;;;;4881368;29;20052;-80
2022/04/26 09:48:37;;;;;;;12.07;2.55;;;11.90;99.90;;;;;;4894701;29;20060;-81
2022/04/26 09:51:04;;;;;;;9.52;2.30;;;12.10;99.90;;;;;;4885691;29;20053;-80
2022/04/26 09:53:30;;;;;;;8.95;2.47;;;12.40;99.90;;;;;;4876032;29;20052;-80
2022/04/26 09:55:56;;;;;;;11.70;2.25;;;12.50;99.90;;;;;;4883030;29;20052;-80
2022/04/26 09:58:24;;;;;;;10.95;2.50;;;12.60;99.90;;;;;;4894627;29;20087;-80
2022/04/26 10:00:51;;;;;;;6.45;2.00;;;12.40;99.90;;;;;;4885075;29;20071;-80
2022/04/26 10:03:22;;;;;;;11.00;2.78;;;12.20;99.90;;;;;;4882346;29;20052;-81
2022/04/26 10:05:50;;;;;;;9.48;2.90;;;12.20;99.90;;;;;;4881312;29;20119;-80
2022/04/26 10:08:18;;;;;;;7.70;2.13;;;12.30;99.90;;;;;;4885360;29;20053;-80
2022/04/26 10:10:44;;;;;;;9.10;2.05;;;12.50;99.90;;;;;;4892118;29;20124;-80
2022/04/26 10:13:31;;;;;;;7.60;2.13;;;12.70;99.90;;;;;;4875886;29;20451;-81
2022/04/26 10:16:04;;;;;;;5.43;2.20;;;12.50;99.90;;;;;;4908072;29;20767;-80
2022/04/26 10:18:43;;;;;;;7.82;2.47;;;12.20;99.90;;;;;;4873430;29;20045;-80
2022/04/26 10:21:11;;;;;;;8.98;2.08;;;12.30;99.90;;;;;;4880580;29;20706;-80
2022/04/26 10:23:52;;;;;;;7.78;2.22;;;12.30;99.90;;;;;;4898140;29;20389;-80
2022/04/26 10:26:24;;;;;;;11.88;2.67;;;12.00;99.90;;;;;;4869923;29;20045;-80
2022/04/26 10:28:54;;;;;;;6.40;1.98;;;11.90;99.90;;;;;;4894257;29;20079;-80
2022/04/26 10:31:35;;;;;;;6.20;2.40;;;11.80;99.90;;;;;;4884403;29;20061;-80
2022/04/26 10:34:16;;;;;;;7.32;2.00;;;11.90;99.90;;;;;;4908179;29;20465;-80
2022/04/26 10:36:42;;;;;;;7.60;2.10;;;12.10;99.90;;;;;;4899929;29;20056;-80
2022/04/26 10:39:09;;;;;;;7.75;2.13;;;12.40;99.90;;;;;;4887781;29;20067;-80
2022/04/26 10:41:38;;;;;;;5.80;1.95;;;12.70;99.90;;;;;;4879039;29;20055;-80
2022/04/26 10:44:13;;;;;;;7.15;2.15;;;13.00;99.90;;;;;;4875927;29;20106;-79
2022/04/26 10:46:40;;;;;;;7.40;2.20;;;13.20;99.90;;;;;;4891957;29;20053;-79
2022/04/26 10:49:39;;;;;;;9.07;2.17;;;13.20;99.90;;;;;;4886910;29;20060;-79
2022/04/26 10:52:15;;;;;;;10.27;2.30;;;12.80;99.90;;;;;;4893782;29;20062;-79
2022/04/26 10:54:48;;;;;;;6.60;2.38;;;12.70;99.90;;;;;;4872624;29;20072;-80
2022/04/26 10:57:14;;;;;;;7.97;1.80;;;12.70;99.90;;;;;;4852901;29;20135;-80
2022/04/26 10:59:46;;;;;;;7.35;2.35;;;12.90;99.90;;;;;;4903056;29;20076;-79
2022/04/26 11:02:14;;;;;;;7.77;2.13;;;13.10;99.90;;;;;;4888214;29;20080;-81
2022/04/26 11:04:40;;;;;;;9.35;2.10;;;13.00;99.90;;;;;;4879190;29;20329;-80
2022/04/26 11:07:12;;;;;;;7.68;2.60;;;13.00;99.90;;;;;;4883466;29;20044;-81
2022/04/26 11:09:46;;;;;;;7.65;2.40;;;13.10;99.90;;;;;;4885294;29;20496;-80
2022/04/26 11:12:12;;;;;;;10.15;2.58;;;13.40;99.90;;;;;;4891301;29;20048;-80
2022/04/26 11:14:45;;;;;;;8.93;2.25;;;13.50;99.90;;;;;;4893683;29;20056;-80
2022/04/26 11:17:11;;;;;;;;;;;13.60;99.90;;;;;;4896753;29;20064;-79
2022/04/26 11:19:37;;;;;;;10.52;2.33;;;13.30;99.90;;;;;;4896081;29;19930;-80
2022/04/26 11:22:07;;;;;;;10.45;2.53;;;13.10;99.90;;;;;;4893853;29;20044;-80
2022/04/26 11:30:05;;;;;;;9.82;2.30;;;13.50;99.90;;;;;;4912265;29;20696;-81
2022/04/26 11:32:32;;;;;;;9.98;2.00;;;13.50;99.90;;;;;;4859660;29;20104;-80
2022/04/26 11:34:58;;;;;;;6.85;2.10;;;13.40;99.90;;;;;;4892944;29;20083;-79
2022/04/26 11:37:24;;;;;;;10.60;1.95;;;13.20;99.90;;;;;;4904087;29;20044;-79
2022/04/26 11:39:50;;;;;;;7.13;2.30;;;13.00;99.90;;;;;;4886381;29;20044;-79
2022/04/26 11:42:16;;;;;;;6.45;2.08;;;13.00;99.90;;;;;;4899770;29;20046;-79
2022/04/26 11:44:58;;;;;;;6.60;1.90;;;13.20;99.90;;;;;;4896846;29;20056;-80
2022/04/26 11:47:42;;;;;;;5.38;2.20;;;13.40;99.90;;;;;;4912191;29;20083;-80
2022/04/26 11:50:08;;;;;;;;;;;13.50;99.90;;;;;;4903900;29;20099;-80
2022/04/26 11:52:34;;;;;;;10.88;2.20;;;13.60;99.90;;;;;;4886139;29;19927;-79
2022/04/26 11:55:00;;;;;;;5.40;1.85;;;13.80;99.90;;;;;;4882805;29;20066;-80
2022/04/26 11:57:25;;;;;;;5.43;2.00;;;13.90;99.90;;;;;;4898847;29;20116;-80
2022/04/26 11:59:52;;;;;;;6.65;1.92;;;14.00;99.90;;;;;;4880831;29;20056;-79
2022/04/26 12:02:18;;;;;;;7.30;1.67;;;14.00;99.90;;;;;;4890138;29;20087;-79
2022/04/26 12:04:44;;;;;;;8.98;2.15;;;14.00;99.90;;;;;;4880309;29;20043;-79
2022/04/26 12:07:10;;;;;;;6.60;2.20;;;14.20;99.90;;;;;;4880794;29;20076;-80
2022/04/26 12:09:36;;;;;;;6.93;1.80;;;14.20;99.90;;;;;;4860348;29;20052;-79
2022/04/26 12:12:03;;;;;;;3.40;1.40;;;14.20;99.90;;;;;;4880509;29;20066;-80
2022/04/26 12:14:28;;;;;;;6.40;2.17;;;14.10;99.90;;;;;;4870375;29;20053;-78
2022/04/26 12:16:55;;;;;;;8.07;1.70;;;14.00;99.90;;;;;;4884177;29;20136;-78
2022/04/26 12:19:34;;;;;;;7.28;1.77;;;13.90;99.90;;;;;;4885248;29;20544;-82
2022/04/26 12:22:01;;;;;;;9.68;2.10;;;13.60;99.90;;;;;;4866805;29;20115;-79
2022/04/26 12:24:29;;;;;;;6.15;1.80;;;13.60;99.90;;;;;;4898298;29;20140;-81
2022/04/26 12:26:58;;;;;;;7.88;2.20;;;13.60;99.90;;;;;;4871005;29;20055;-78
2022/04/26 12:29:26;;;;;;;8.65;1.92;;;13.80;99.90;;;;;;4899190;29;20131;-80
2022/04/26 12:31:51;;;;;;;5.25;1.80;;;14.10;99.90;;;;;;4886046;29;20060;-79
2022/04/26 12:34:22;;;;;;;5.78;1.67;;;13.90;99.90;;;;;;4880350;29;20052;-84
2022/04/26 12:36:53;;;;;;;6.45;2.10;;;13.80;99.90;;;;;;4874870;29;20131;-84
2022/04/26 12:39:21;;;;;;;10.15;2.33;;;13.80;99.90;;;;;;4889978;29;20045;-78
2022/04/26 12:41:49;;;;;;;7.90;1.67;;;14.00;99.90;;;;;;4875805;29;20041;-78
2022/04/26 12:44:15;;;;;;;6.60;1.98;;;14.00;99.90;;;;;;4883391;29;20048;-78
2022/04/26 12:46:45;;;;;;;6.15;1.40;;;14.10;99.90;;;;;;4872499;29;20044;-82
2022/04/26 12:51:57;;;;;;;5.63;1.83;;;14.30;99.90;;;;;;4874204;29;20049;-82
2022/04/26 12:54:22;;;;;;;7.30;1.95;;;14.50;99.90;;;;;;4866418;29;20084;-81
2022/04/26 12:56:58;;;;;;;5.90;1.83;;;14.40;99.90;;;;;;4877515;29;20076;-81
2022/04/26 12:59:32;;;;;;;4.72;1.70;;;14.20;99.90;;;;;;4873483;29;20052;-82
2022/04/26 13:01:58;;;;;;;7.47;2.30;;;13.90;99.90;;;;;;4887502;29;20148;-82
2022/04/26 13:04:24;;;;;;;9.77;2.08;;;13.80;99.90;;;;;;4895341;29;20058;-81
2022/04/26 13:06:50;;;;;;;4.65;1.85;;;13.70;99.90;;;;;;4910876;29;20047;-78
2022/04/26 13:09:16;;;;;;;10.20;2.35;;;13.70;99.90;;;;;;4890283;29;20127;-78
2022/04/26 13:11:43;;;;;;;6.25;1.75;;;13.70;99.90;;;;;;4881424;29;20052;-78
2022/04/26 13:14:09;;;;;;;7.15;1.85;;;13.70;99.90;;;;;;4864241;29;20064;-78
2022/04/26 13:16:35;;;;;;;7.22;2.17;;;13.70;99.90;;;;;;4903818;29;20148;-78
2022/04/26 13:19:00;;;;;;;4.85;1.67;;;13.50;99.90;;;;;;4900705;29;20044;-78
2022/04/26 13:21:26;;;;;;;4.80;1.70;;;13.60;99.90;;;;;;4888977;29;20040;-78
2022/04/26 13:23:54;;;;;;;5.82;1.70;;;13.60;99.90;;;;;;4887594;29;20481;-78
2022/04/26 13:26:20;;;;;;;6.32;1.75;;;13.80;99.90;;;;;;4876395;29;20053;-78
2022/04/26 13:28:46;;;;;;;5.40;1.80;;;13.90;99.90;;;;;;4891038;29;20143;-79
2022/04/26 13:31:11;;;;;;;7.38;2.00;;;14.10;99.90;;;;;;4885351;29;20044;-78
2022/04/26 13:33:37;;;;;;;7.32;2.10;;;14.10;99.90;;;;;;4883623;29;20098;-77
2022/04/26 13:36:03;;;;;;;9.98;2.05;;;14.20;99.90;;;;;;4885814;29;20139;-78
2022/04/26 13:38:29;;;;;;;7.30;1.75;;;14.10;99.90;;;;;;4893622;29;20421;-79
2022/04/26 13:40:55;;;;;;;9.93;1.92;;;14.00;99.90;;;;;;4888605;29;20089;-78
2022/04/26 13:43:23;;;;;;;10.07;2.22;;;14.00;99.90;;;;;;4882653;29;20095;-78
2022/04/26 13:45:49;;;;;;;9.45;2.35;;;14.00;99.90;;;;;;4891070;29;20052;-78
2022/04/26 13:48:15;;;;;;;7.72;1.80;;;13.90;99.90;;;;;;4889957;29;20057;-78
2022/04/26 13:50:41;;;;;;;10.15;2.30;;;14.00;99.90;;;;;;4876588;29;20044;-77
2022/04/26 13:53:07;;;;;;;6.93;2.72;;;13.80;99.90;;;;;;4879615;29;20051;-78
2022/04/26 13:55:33;;;;;;;6.88;2.40;;;13.60;99.90;;;;;;4873559;29;20192;-78
2022/04/26 13:58:00;;;;;;;12.77;2.38;;;13.20;99.90;;;;;;4899820;29;20485;-78
2022/04/26 14:00:26;;;;;;;5.97;2.03;;;13.00;99.90;;;;;;4874428;29;20055;-77
2022/04/26 14:02:52;;;;;;;6.65;2.20;;;12.90;99.90;;;;;;4888692;29;20048;-78
2022/04/26 14:05:20;;;;;;;5.90;2.00;;;12.70;99.90;;;;;;4880320;29;20480;-78
2022/04/26 14:07:46;;;;;;;16.63;2.45;;;12.90;99.90;;;;;;4893996;29;20056;-79
2022/04/26 14:10:13;;;;;;;5.15;1.98;;;12.80;99.90;;;;;;4890542;29;20507;-78
2022/04/26 14:12:39;;;;;;;6.13;2.13;;;12.70;99.90;;;;;;4886592;29;20403;-79
2022/04/26 14:23:19;;;;;;;6.45;2.00;;;12.20;99.90;;;;;;4871946;29;20091;-79
2022/04/26 14:25:44;;;;;;;14.43;2.30;;;12.20;99.90;;;;;;4915947;29;20083;-79
2022/04/26 14:28:10;;;;;;;6.05;2.13;;;12.20;99.90;;;;;;4885907;29;20040;-78
2022/04/26 14:30:36;;;;;;;9.02;2.22;;;12.20;99.90;;;;;;4904467;29;20047;-78
2022/04/26 14:33:02;;;;;;;7.45;2.08;;;12.20;99.90;;;;;;4894056;29;20048;-78
2022/04/26 14:35:29;;;;;;;8.73;2.15;;;12.20;99.90;;;;;;4886487;29;20059;-79
2022/04/26 14:37:55;;;;;;;6.43;2.05;;;12.30;99.90;;;;;;4887148;29;20113;-80
2022/04/26 14:40:21;;;;;;;7.05;2.08;;;12.40;99.90;;;;;;4893280;29;20068;-79
2022/04/26 14:42:46;;;;;;;6.63;2.35;;;12.30;99.90;;;;;;4892018;29;20163;-79
2022/04/26 14:45:13;;;;;;;9.25;2.10;;;12.30;99.90;;;;;;4875430;29;20064;-80
2022/04/26 14:47:40;;;;;;;20.65;2.38;;;12.40;99.90;;;;;;4885418;29;20067;-79
2022/04/26 14:50:06;;;;;;;9.50;2.22;;;12.50;99.90;;;;;;4900217;29;20123;-79
2022/04/26 14:52:32;;;;;;;6.15;1.77;;;12.60;99.90;;;;;;4897496;29;20393;-79
2022/04/26 14:55:01;;;;;;;8.55;1.90;;;12.80;99.90;;;;;;4896527;29;20046;-78
2022/04/26 14:57:28;;;;;;;7.60;2.08;;;13.10;99.90;;;;;;4894497;29;20078;-80
2022/04/26 14:59:53;;;;;;;8.45;1.90;;;13.30;99.90;;;;;;4891357;29;20051;-80
2022/04/26 15:02:19;;;;;;;5.00;1.85;;;13.20;99.90;;;;;;4896568;29;20139;-80
2022/04/26 15:04:47;;;;;;;4.30;1.50;;;13.30;99.90;;;;;;4913358;29;20044;-80
2022/04/26 15:07:12;;;;;;;5.90;1.65;;;13.50;99.90;;;;;;4894278;29;20040;-80
2022/04/26 15:09:51;;;;;;;6.22;1.70;;;13.60;99.90;;;;;;4894651;29;20130;-79
2022/04/26 15:17:48;;;;;;;6.97;2.28;;;13.70;99.90;;;;;;4875594;29;20520;-80
2022/04/26 15:20:15;;;;;;;14.48;2.65;;;13.40;99.90;;;;;;4881476;29;20101;-80
2022/04/26 15:22:41;;;;;;;6.25;1.70;;;13.10;99.90;;;;;;4881330;29;20111;-80
2022/04/26 15:25:09;;;;;;;7.38;2.03;;;13.10;99.90;;;;;;4880858;29;20049;-80
2022/04/26 15:27:38;;;;;;;9.13;2.05;;;13.10;99.90;;;;;;4889994;29;20071;-80
2022/04/26 15:30:06;;;;;;;6.50;1.83;;;13.20;99.90;;;;;;4894261;29;20083;-80
2022/04/26 15:32:32;;;;;;;3.40;1.63;;;13.30;99.90;;;;;;4879883;29;20051;-80
2022/04/26 15:34:58;;;;;;;7.38;2.20;;;13.30;99.90;;;;;;4879699;29;20040;-78
2022/04/26 15:37:25;;;;;;;7.68;2.20;;;13.10;99.90;;;;;;4886291;29;20466;-80
2022/04/26 15:39:53;;;;;;;13.88;2.47;;;12.80;99.90;;;;;;4876749;29;20048;-80
2022/04/26 15:42:18;;;;;;;9.90;2.20;;;12.80;99.90;;;;;;4885914;29;20100;-79
2022/04/26 15:44:45;;;;;;;5.88;2.03;;;13.00;99.90;;;;;;4879081;29;20552;-79
2022/04/26 15:47:11;;;;;;;12.75;2.15;;;13.10;99.90;;;;;;4877221;29;20056;-79
2022/04/26 15:49:37;;;;;;;9.20;2.03;;;13.20;99.90;;;;;;4879651;29;20866;-80
2022/04/26 15:52:03;;;;;;;6.75;1.90;;;13.10;99.90;;;;;;4886007;29;20491;-80
2022/04/26 15:54:29;;;;;;;9.07;2.10;;;13.20;99.90;;;;;;4885200;29;20041;-80
2022/04/26 15:56:54;;;;;;;5.22;2.17;;;13.20;99.90;;;;;;4885660;29;20047;-80
2022/04/26 15:59:20;;;;;;;8.73;2.10;;;13.10;99.90;;;;;;4901522;29;20147;-79
2022/04/26 16:01:46;;;;;;;7.88;1.75;;;13.20;99.90;;;;;;4896769;29;20044;-80
2022/04/26 16:04:12;;;;;;;8.90;1.77;;;13.20;99.90;;;;;;4888067;29;20052;-80
2022/04/26 16:06:39;;;;;;;5.40;1.42;;;13.20;99.90;;;;;;4886908;29;20139;-80
2022/04/26 16:22:49;;;;;;;8.23;1.98;;;13.40;99.70;;;;;;4909165;29;20060;-80
2022/04/26 16:25:15;;;;;;;6.97;2.20;;;13.30;99.40;;;;;;4882527;29;20488;-80
2022/04/26 16:27:42;;;;;;;7.00;2.60;;;13.40;99.40;;;;;;4901721;29;20059;-81
2022/04/26 16:30:10;;;;;;;6.50;1.90;;;13.40;99.70;;;;;;4881914;29;20151;-81
2022/04/26 16:32:36;;;;;;;8.18;2.13;;;13.40;99.50;;;;;;4863127;29;20058;-80
2022/04/26 16:35:01;;;;;;;6.75;2.17;;;13.80;99.00;;;;;;4876662;29;20045;-80
2022/04/26 16:37:27;;;;;;;4.53;1.60;;;14.00;98.60;;;;;;4888506;29;20079;-80
2022/04/26 16:39:53;;;;;;;5.50;2.10;;;13.70;98.20;;;;;;4860423;29;20394;-80
2022/04/26 16:42:19;;;;;;;8.68;1.90;;;13.20;98.80;;;;;;4870138;29;20040;-80
2022/04/26 16:44:45;;;;;;;10.30;2.55;;;12.80;99.70;;;;;;4893220;29;20377;-81
2022/04/26 16:47:11;;;;;;;8.57;2.10;;;12.40;99.90;;;;;;4888556;29;20048;-80
2022/04/26 16:49:39;;;;;;;5.97;1.92;;;12.10;99.90;;;;;;4867333;29;20048;-81
2022/04/26 16:52:05;;;;;;;12.07;2.10;;;11.90;99.90;;;;;;4877900;29;20061;-81
2022/04/26 16:54:31;;;;;;;8.48;1.70;;;12.40;99.90;;;;;;4897887;29;20052;-80
2022/04/26 16:56:57;;;;;;;8.30;2.25;;;13.00;99.90;;;;;;4871411;29;20479;-80
2022/04/26 16:59:24;;;;;;;9.13;2.00;;;13.70;99.20;;;;;;4876920;29;20056;-81
2022/04/26 17:01:51;;;;;;;8.57;1.73;;;14.20;97.40;;;;;;4870451;29;20057;-81
2022/04/26 17:04:17;;;;;;;8.88;2.28;;;14.70;95.90;;;;;;4890530;29;20052;-81
2022/04/26 17:06:43;;;;;;;7.65;1.85;;;15.00;94.40;;;;;;4882303;29;20050;-81
2022/04/26 17:09:09;;;;;;;8.25;2.47;;;15.30;93.70;;;;;;4878276;29;20060;-80